createdAt,value
2019-02-25T00:00:17.526Z,10.30
2019-02-25T00:01:17.435Z,10.40
2019-02-25T00:02:17.348Z,10.60
2019-02-25T00:03:17.260Z,10.50
2019-02-25T00:04:17.173Z,10.10
2019-02-25T00:05:17.090Z,11.40
2019-02-25T00:06:17.012Z,10.70
2019-02-25T00:07:16.926Z,10.60
2019-02-25T00:08:16.837Z,10.70
2019-02-25T00:09:16.761Z,10.80
2019-02-25T00:10:16.662Z,10.10
2019-02-25T00:11:16.577Z,10.60
2019-02-25T00:12:16.489Z,10.40
2019-02-25T00:13:16.399Z,10.90
2019-02-25T00:14:16.324Z,10.70
2019-02-25T00:15:16.236Z,10.20
2019-02-25T00:16:16.149Z,10.20
2019-02-25T00:17:16.064Z,10.90
2019-02-25T00:18:15.976Z,10.30
2019-02-25T00:19:15.889Z,10.40
2019-02-25T00:20:15.804Z,10.70
2019-02-25T00:21:15.713Z,10.20
2019-02-25T00:22:15.636Z,10.30
2019-02-25T00:23:15.550Z,11.10
2019-02-25T00:24:15.461Z,10.80
2019-02-25T00:25:15.375Z,9.90
2019-02-25T00:26:15.287Z,10.60
2019-02-25T00:27:15.201Z,10.30
2019-02-25T00:28:15.126Z,10.50
2019-02-25T00:29:15.039Z,11.00
2019-02-25T00:30:14.960Z,10.10
2019-02-25T00:31:14.864Z,10.00
2019-02-25T00:32:14.780Z,11.00
2019-02-25T00:33:14.689Z,10.40
2019-02-25T00:34:14.603Z,10.60
2019-02-25T00:35:14.515Z,10.50
2019-02-25T00:36:14.427Z,10.70
2019-02-25T00:37:14.355Z,11.00
2019-02-25T00:38:14.265Z,11.00
2019-02-25T00:39:14.179Z,10.80
2019-02-25T00:40:14.091Z,11.50
2019-02-25T00:41:14.006Z,11.40
2019-02-25T00:42:13.915Z,11.20
2019-02-25T00:43:13.829Z,11.20
2019-02-25T00:44:13.741Z,11.30
2019-02-25T00:45:13.914Z,11.80
2019-02-25T00:46:13.578Z,11.90
2019-02-25T00:47:13.489Z,12.20
2019-02-25T00:48:13.407Z,12.40
2019-02-25T00:49:13.316Z,12.50
2019-02-25T00:50:13.230Z,12.30
2019-02-25T00:51:13.142Z,12.00
2019-02-25T00:52:13.056Z,12.20
2019-02-25T00:53:12.966Z,11.70
2019-02-25T00:54:12.879Z,12.10
2019-02-25T00:55:12.793Z,11.70
2019-02-25T00:56:12.715Z,11.70
2019-02-25T00:57:12.635Z,11.40
2019-02-25T00:58:12.542Z,11.40
2019-02-25T00:59:12.455Z,11.60
2019-02-25T01:00:12.366Z,11.00
2019-02-25T01:01:12.281Z,12.10
2019-02-25T01:02:12.206Z,11.50
2019-02-25T01:03:12.116Z,12.20
2019-02-25T01:04:12.020Z,11.70
2019-02-25T01:05:11.945Z,11.60
2019-02-25T01:06:11.854Z,11.60
2019-02-25T01:07:11.767Z,11.30
2019-02-25T01:08:11.680Z,11.60
2019-02-25T01:09:11.595Z,11.60
2019-02-25T01:10:11.507Z,12.20
2019-02-25T01:11:11.420Z,11.20
2019-02-25T01:12:11.334Z,11.80
2019-02-25T01:13:11.247Z,11.50
2019-02-25T01:14:11.167Z,10.90
2019-02-25T01:15:11.080Z,11.10
2019-02-25T01:16:11.006Z,11.30
2019-02-25T01:17:10.908Z,11.90
2019-02-25T01:18:10.820Z,11.60
2019-02-25T01:19:10.734Z,11.40
2019-02-25T01:20:10.645Z,11.30
2019-02-25T01:21:10.557Z,12.20
2019-02-25T01:22:10.470Z,11.80
2019-02-25T01:23:10.393Z,11.50
2019-02-25T01:24:10.307Z,11.40
2019-02-25T01:25:10.221Z,11.30
2019-02-25T01:26:10.135Z,11.70
2019-02-25T01:27:10.059Z,10.70
2019-02-25T01:28:09.958Z,12.20
2019-02-25T01:29:09.873Z,11.10
2019-02-25T01:30:09.790Z,11.50
2019-02-25T01:31:09.697Z,11.60
2019-02-25T01:32:09.611Z,11.60
2019-02-25T01:33:09.533Z,11.90
2019-02-25T01:34:09.445Z,11.20
2019-02-25T01:35:09.363Z,11.50
2019-02-25T01:36:09.270Z,11.40
2019-02-25T01:37:09.185Z,11.80
2019-02-25T01:38:09.097Z,10.70
2019-02-25T01:39:09.011Z,11.10
2019-02-25T01:40:08.923Z,10.90
2019-02-25T01:41:08.845Z,11.20
2019-02-25T01:42:08.758Z,11.00
2019-02-25T01:43:08.683Z,11.40
2019-02-25T01:44:08.585Z,11.30
2019-02-25T01:45:08.496Z,10.80
2019-02-25T01:46:08.408Z,10.60
2019-02-25T01:47:08.320Z,11.40
2019-02-25T01:48:08.234Z,10.60
2019-02-25T01:49:08.152Z,10.40
2019-02-25T01:50:08.062Z,10.80
2019-02-25T01:51:07.974Z,11.30
2019-02-25T01:52:07.898Z,10.50
2019-02-25T01:53:07.810Z,10.90
2019-02-25T01:54:07.742Z,11.10
2019-02-25T01:55:07.634Z,11.20
2019-02-25T01:56:07.547Z,11.40
2019-02-25T01:57:07.466Z,12.20
2019-02-25T01:58:07.374Z,11.00
2019-02-25T01:59:07.290Z,11.10
2019-02-25T02:00:07.500Z,11.10
2019-02-25T02:01:07.118Z,11.50
2019-02-25T02:02:07.038Z,11.60
2019-02-25T02:03:06.950Z,12.10
2019-02-25T02:04:06.867Z,11.40
2019-02-25T02:05:06.773Z,11.40
2019-02-25T02:06:06.687Z,11.00
2019-02-25T02:07:06.598Z,11.30
2019-02-25T02:08:06.512Z,11.50
2019-02-25T02:09:06.427Z,11.40
2019-02-25T02:10:06.339Z,11.40
2019-02-25T02:11:06.251Z,11.00
2019-02-25T02:12:06.164Z,10.90
2019-02-25T02:13:14.008Z,10.90
2019-02-25T02:14:05.999Z,11.40
2019-02-25T02:15:05.913Z,11.50
2019-02-25T02:16:05.825Z,10.90
2019-02-25T02:17:05.738Z,11.30
2019-02-25T02:18:05.652Z,11.20
2019-02-25T02:19:05.562Z,11.10
2019-02-25T02:20:05.725Z,10.70
2019-02-25T02:21:05.391Z,11.40
2019-02-25T02:22:05.302Z,11.00
2019-02-25T02:23:05.217Z,10.90
2019-02-25T02:24:05.127Z,10.90
2019-02-25T02:25:05.038Z,10.90
2019-02-25T02:26:04.968Z,11.10
2019-02-25T02:27:04.889Z,11.20
2019-02-25T02:28:04.796Z,11.20
2019-02-25T02:29:04.703Z,11.00
2019-02-25T02:30:04.625Z,11.00
2019-02-25T02:31:04.543Z,10.70
2019-02-25T02:32:04.442Z,11.10
2019-02-25T02:33:04.354Z,11.00
2019-02-25T02:34:04.267Z,10.90
2019-02-25T02:35:04.178Z,11.50
2019-02-25T02:36:04.092Z,10.90
2019-02-25T02:37:04.001Z,10.70
2019-02-25T02:38:03.926Z,10.80
2019-02-25T02:39:03.828Z,10.50
2019-02-25T02:40:04.002Z,11.40
2019-02-25T02:41:03.668Z,10.70
2019-02-25T02:42:03.579Z,11.40
2019-02-25T02:43:03.492Z,10.50
2019-02-25T02:44:03.421Z,10.70
2019-02-25T02:45:03.322Z,10.90
2019-02-25T02:46:03.242Z,11.50
2019-02-25T02:47:03.141Z,10.80
2019-02-25T02:48:03.054Z,10.80
2019-02-25T02:49:02.983Z,11.00
2019-02-25T02:50:02.878Z,11.60
2019-02-25T02:51:02.792Z,11.40
2019-02-25T02:52:02.706Z,11.20
2019-02-25T02:53:02.646Z,10.80
2019-02-25T02:54:02.549Z,10.60
2019-02-25T02:55:02.458Z,11.70
2019-02-25T02:56:02.372Z,11.50
2019-02-25T02:57:02.278Z,11.20
2019-02-25T02:58:02.198Z,10.80
2019-02-25T02:59:02.107Z,11.00
2019-02-25T03:00:02.017Z,10.90
2019-02-25T03:01:01.959Z,11.20
2019-02-25T03:02:01.845Z,11.10
2019-02-25T03:03:01.756Z,11.40
2019-02-25T03:04:01.674Z,11.60
2019-02-25T03:05:01.833Z,11.40
2019-02-25T03:06:01.510Z,11.50
2019-02-25T03:07:01.420Z,10.50
2019-02-25T03:08:01.334Z,11.10
2019-02-25T03:09:01.245Z,10.90
2019-02-25T03:10:01.155Z,11.40
2019-02-25T03:11:01.080Z,11.00
2019-02-25T03:12:00.981Z,10.90
2019-02-25T03:13:00.896Z,11.00
2019-02-25T03:14:00.808Z,10.80
2019-02-25T03:15:00.721Z,11.60
2019-02-25T03:16:00.633Z,12.20
2019-02-25T03:17:00.545Z,11.20
2019-02-25T03:18:00.469Z,11.20
2019-02-25T03:19:00.370Z,11.30
2019-02-25T03:20:00.294Z,11.60
2019-02-25T03:21:00.218Z,10.90
2019-02-25T03:22:00.125Z,11.40
2019-02-25T03:23:00.033Z,10.90
2019-02-25T03:23:59.947Z,11.20
2019-02-25T03:24:59.858Z,11.40
2019-02-25T03:25:59.769Z,10.50
2019-02-25T03:26:59.683Z,11.20
2019-02-25T03:27:59.600Z,11.10
2019-02-25T03:28:59.525Z,11.60
2019-02-25T03:29:59.422Z,11.40
2019-02-25T03:30:59.336Z,11.70
2019-02-25T03:31:59.261Z,11.10
2019-02-25T03:32:59.176Z,11.00
2019-02-25T03:33:59.088Z,11.40
2019-02-25T03:34:58.996Z,11.00
2019-02-25T03:35:58.921Z,11.60
2019-02-25T03:36:58.822Z,11.70
2019-02-25T03:37:58.736Z,11.10
2019-02-25T03:38:58.648Z,11.70
2019-02-25T03:39:58.860Z,11.80
2019-02-25T03:40:58.475Z,11.40
2019-02-25T03:41:58.387Z,11.10
2019-02-25T03:42:58.299Z,11.40
2019-02-25T03:43:58.211Z,11.30
2019-02-25T03:44:58.147Z,11.10
2019-02-25T03:45:58.052Z,11.50
2019-02-25T03:46:57.959Z,11.40
2019-02-25T03:47:57.871Z,11.90
2019-02-25T03:48:57.788Z,11.30
2019-02-25T03:49:57.699Z,11.50
2019-02-25T03:50:57.612Z,11.40
2019-02-25T03:51:57.525Z,11.80
2019-02-25T03:52:57.458Z,11.00
2019-02-25T03:53:57.352Z,11.80
2019-02-25T03:54:57.262Z,11.90
2019-02-25T03:55:57.199Z,11.80
2019-02-25T03:56:57.101Z,12.10
2019-02-25T03:57:57.010Z,12.00
2019-02-25T03:58:56.911Z,11.70
2019-02-25T03:59:56.849Z,11.50
2019-02-25T04:00:56.751Z,12.10
2019-02-25T04:01:56.663Z,11.50
2019-02-25T04:02:56.576Z,10.30
2019-02-25T04:03:56.501Z,10.70
2019-02-25T04:04:56.399Z,10.10
2019-02-25T04:05:56.316Z,10.30
2019-02-25T04:06:56.225Z,10.80
2019-02-25T04:07:56.150Z,11.40
2019-02-25T04:08:56.050Z,11.30
2019-02-25T04:09:56.033Z,11.20
2019-02-25T04:10:55.875Z,11.30
2019-02-25T04:11:55.789Z,11.10
2019-02-25T04:12:55.719Z,11.50
2019-02-25T04:13:55.628Z,11.10
2019-02-25T04:14:55.540Z,11.70
2019-02-25T04:15:55.453Z,11.00
2019-02-25T04:16:55.362Z,11.20
2019-02-25T04:17:55.275Z,11.40
2019-02-25T04:18:55.188Z,11.70
2019-02-25T04:19:55.101Z,11.60
2019-02-25T04:20:55.015Z,11.60
2019-02-25T04:21:54.927Z,11.50
2019-02-25T04:22:54.840Z,11.10
2019-02-25T04:23:54.754Z,12.00
2019-02-25T04:24:54.666Z,11.20
2019-02-25T04:25:54.578Z,11.10
2019-02-25T04:26:55.731Z,11.30
2019-02-25T04:27:54.419Z,11.70
2019-02-25T04:28:54.328Z,11.40
2019-02-25T04:29:54.239Z,11.10
2019-02-25T04:30:54.154Z,11.20
2019-02-25T04:31:54.120Z,11.60
2019-02-25T04:32:53.986Z,11.90
2019-02-25T04:33:53.891Z,12.30
2019-02-25T04:34:53.806Z,11.60
2019-02-25T04:35:53.717Z,11.20
2019-02-25T04:36:53.630Z,12.10
2019-02-25T04:37:53.540Z,11.50
2019-02-25T04:38:53.457Z,12.00
2019-02-25T04:39:53.366Z,11.90
2019-02-25T04:40:53.278Z,12.00
2019-02-25T04:41:53.197Z,11.90
2019-02-25T04:42:53.105Z,11.50
2019-02-25T04:43:53.017Z,11.90
2019-02-25T04:44:53.183Z,11.60
2019-02-25T04:45:52.857Z,11.30
2019-02-25T04:46:52.769Z,11.40
2019-02-25T04:47:52.681Z,11.40
2019-02-25T04:48:52.590Z,11.90
2019-02-25T04:49:52.510Z,11.20
2019-02-25T04:50:52.416Z,12.00
2019-02-25T04:51:52.332Z,11.60
2019-02-25T04:52:52.263Z,11.50
2019-02-25T04:53:52.159Z,12.00
2019-02-25T04:54:52.075Z,11.30
2019-02-25T04:55:51.984Z,11.30
2019-02-25T04:56:51.895Z,11.30
2019-02-25T04:57:51.808Z,12.10
2019-02-25T04:58:51.724Z,11.70
2019-02-25T04:59:51.933Z,11.70
2019-02-25T05:00:51.542Z,11.10
2019-02-25T05:01:51.459Z,12.00
2019-02-25T05:02:51.372Z,11.70
2019-02-25T05:03:51.282Z,11.80
2019-02-25T05:04:51.197Z,11.60
2019-02-25T05:05:51.119Z,11.80
2019-02-25T05:06:51.022Z,11.50
2019-02-25T05:07:50.945Z,11.80
2019-02-25T05:08:50.858Z,11.30
2019-02-25T05:09:50.769Z,11.70
2019-02-25T05:10:50.681Z,12.10
2019-02-25T05:11:50.593Z,12.20
2019-02-25T05:12:50.507Z,12.30
2019-02-25T05:13:50.420Z,11.80
2019-02-25T05:14:50.332Z,11.80
2019-02-25T05:15:50.257Z,12.00
2019-02-25T05:16:50.165Z,12.10
2019-02-25T05:17:50.076Z,12.40
2019-02-25T05:18:49.991Z,11.30
2019-02-25T05:19:49.902Z,11.60
2019-02-25T05:20:49.808Z,11.50
2019-02-25T05:21:49.720Z,11.60
2019-02-25T05:22:49.644Z,12.20
2019-02-25T05:23:49.548Z,11.70
2019-02-25T05:24:49.461Z,11.30
2019-02-25T05:25:49.374Z,11.80
2019-02-25T05:26:49.290Z,11.70
2019-02-25T05:27:49.198Z,12.40
2019-02-25T05:28:49.109Z,11.70
2019-02-25T05:29:49.034Z,11.70
2019-02-25T05:30:48.936Z,11.80
2019-02-25T05:31:48.848Z,11.50
2019-02-25T05:32:48.763Z,12.20
2019-02-25T05:33:48.676Z,11.90
2019-02-25T05:34:48.887Z,11.90
2019-02-25T05:35:48.503Z,11.90
2019-02-25T05:36:48.423Z,12.70
2019-02-25T05:37:48.338Z,12.30
2019-02-25T05:38:48.248Z,12.10
2019-02-25T05:39:48.163Z,12.20
2019-02-25T05:40:48.074Z,11.50
2019-02-25T05:41:47.987Z,12.30
2019-02-25T05:42:47.923Z,12.10
2019-02-25T05:43:47.818Z,11.30
2019-02-25T05:44:47.737Z,12.40
2019-02-25T05:45:47.641Z,12.20
2019-02-25T05:46:47.551Z,12.60
2019-02-25T05:47:47.465Z,12.70
2019-02-25T05:48:47.374Z,12.20
2019-02-25T05:49:47.295Z,12.20
2019-02-25T05:50:47.214Z,12.50
2019-02-25T05:51:47.129Z,12.10
2019-02-25T05:52:47.034Z,13.20
2019-02-25T05:53:46.947Z,12.50
2019-02-25T05:54:46.851Z,12.50
2019-02-25T05:55:46.764Z,12.60
2019-02-25T05:56:46.674Z,12.00
2019-02-25T05:57:46.590Z,12.00
2019-02-25T05:58:46.516Z,12.80
2019-02-25T05:59:46.413Z,12.30
2019-02-25T06:00:46.328Z,12.00
2019-02-25T06:01:46.245Z,12.40
2019-02-25T06:02:46.149Z,12.30
2019-02-25T06:03:46.062Z,12.40
2019-02-25T06:04:45.977Z,12.50
2019-02-25T06:05:45.890Z,12.60
2019-02-25T06:06:45.802Z,12.00
2019-02-25T06:07:45.716Z,12.40
2019-02-25T06:08:45.641Z,12.20
2019-02-25T06:09:45.538Z,11.60
2019-02-25T06:10:45.450Z,12.20
2019-02-25T06:11:45.366Z,11.60
2019-02-25T06:12:45.293Z,12.00
2019-02-25T06:13:45.205Z,11.50
2019-02-25T06:14:45.102Z,12.40
2019-02-25T06:15:45.016Z,12.60
2019-02-25T06:16:44.941Z,12.20
2019-02-25T06:17:44.842Z,12.40
2019-02-25T06:18:44.755Z,12.00
2019-02-25T06:19:44.918Z,11.80
2019-02-25T06:20:44.577Z,12.70
2019-02-25T06:21:44.524Z,12.30
2019-02-25T06:22:44.401Z,12.60
2019-02-25T06:23:44.315Z,12.90
2019-02-25T06:24:44.241Z,12.20
2019-02-25T06:25:44.150Z,12.30
2019-02-25T06:26:44.055Z,12.60
2019-02-25T06:27:43.985Z,12.30
2019-02-25T06:28:43.878Z,12.30
2019-02-25T06:29:43.803Z,12.50
2019-02-25T06:30:43.703Z,12.30
2019-02-25T06:31:43.617Z,12.80
2019-02-25T06:32:43.541Z,12.60
2019-02-25T06:33:43.452Z,12.40
2019-02-25T06:34:43.404Z,13.10
2019-02-25T06:35:43.278Z,12.70
2019-02-25T06:36:43.194Z,12.30
2019-02-25T06:37:43.106Z,12.30
2019-02-25T06:38:43.020Z,11.70
2019-02-25T06:39:42.931Z,11.80
2019-02-25T06:40:42.843Z,12.20
2019-02-25T06:41:42.753Z,12.10
2019-02-25T06:42:42.667Z,11.90
2019-02-25T06:43:42.592Z,11.80
2019-02-25T06:44:42.745Z,11.60
2019-02-25T06:45:42.406Z,11.80
2019-02-25T06:46:42.321Z,11.90
2019-02-25T06:47:42.231Z,11.30
2019-02-25T06:48:42.144Z,11.80
2019-02-25T06:49:42.056Z,12.00
2019-02-25T06:50:41.973Z,12.30
2019-02-25T06:51:41.885Z,11.80
2019-02-25T06:52:41.799Z,11.70
2019-02-25T06:53:41.707Z,12.10
2019-02-25T06:54:41.618Z,12.40
2019-02-25T06:55:41.532Z,11.90
2019-02-25T06:56:41.445Z,11.90
2019-02-25T06:57:41.359Z,11.90
2019-02-25T06:58:41.283Z,11.90
2019-02-25T06:59:41.184Z,12.40
2019-02-25T07:00:41.106Z,12.00
2019-02-25T07:01:41.020Z,11.90
2019-02-25T07:02:40.931Z,12.00
2019-02-25T07:03:40.844Z,11.80
2019-02-25T07:04:40.757Z,11.80
2019-02-25T07:05:40.669Z,11.40
2019-02-25T07:06:40.582Z,12.10
2019-02-25T07:07:40.495Z,11.80
2019-02-25T07:08:40.409Z,11.80
2019-02-25T07:09:40.323Z,12.20
2019-02-25T07:10:40.233Z,11.90
2019-02-25T07:11:40.148Z,11.90
2019-02-25T07:12:40.058Z,11.50
2019-02-25T07:13:39.984Z,11.50
2019-02-25T07:14:39.897Z,12.40
2019-02-25T07:15:39.816Z,11.60
2019-02-25T07:16:39.723Z,11.10
2019-02-25T07:17:39.635Z,11.70
2019-02-25T07:18:39.550Z,11.30
2019-02-25T07:19:39.460Z,11.30
2019-02-25T07:20:39.373Z,11.60
2019-02-25T07:21:39.286Z,11.60
2019-02-25T07:22:39.199Z,12.10
2019-02-25T07:23:39.125Z,10.90
2019-02-25T07:24:39.033Z,11.40
2019-02-25T07:25:38.946Z,11.80
2019-02-25T07:26:38.860Z,11.70
2019-02-25T07:27:38.771Z,11.10
2019-02-25T07:28:38.687Z,11.70
2019-02-25T07:29:38.600Z,12.10
2019-02-25T07:30:38.512Z,11.20
2019-02-25T07:31:38.436Z,11.10
2019-02-25T07:32:38.347Z,10.90
2019-02-25T07:33:38.259Z,10.80
2019-02-25T07:34:38.174Z,11.40
2019-02-25T07:35:38.086Z,10.70
2019-02-25T07:36:38.021Z,11.10
2019-02-25T07:37:37.926Z,11.30
2019-02-25T07:38:39.709Z,11.00
2019-02-25T07:39:38.003Z,11.10
2019-02-25T07:40:37.661Z,10.90
2019-02-25T07:41:38.238Z,11.10
2019-02-25T07:42:37.498Z,11.00
2019-02-25T07:43:37.423Z,11.30
2019-02-25T07:44:37.325Z,10.80
2019-02-25T07:45:37.238Z,10.70
2019-02-25T07:46:37.162Z,10.80
2019-02-25T07:47:37.087Z,10.60
2019-02-25T07:48:36.986Z,10.70
2019-02-25T07:49:36.900Z,11.10
2019-02-25T07:50:36.824Z,11.10
2019-02-25T07:51:36.738Z,11.00
2019-02-25T07:52:36.650Z,11.60
2019-02-25T07:53:36.575Z,11.30
2019-02-25T07:54:36.494Z,10.80
2019-02-25T07:55:36.400Z,11.60
2019-02-25T07:56:36.326Z,11.90
2019-02-25T07:57:36.239Z,11.30
2019-02-25T07:58:36.152Z,11.60
2019-02-25T07:59:36.079Z,11.50
2019-02-25T08:00:35.988Z,11.50
2019-02-25T08:01:35.905Z,11.30
2019-02-25T08:02:35.812Z,11.30
2019-02-25T08:03:35.738Z,11.50
2019-02-25T08:04:35.653Z,11.90
2019-02-25T08:05:35.565Z,11.50
2019-02-25T08:06:35.479Z,11.50
2019-02-25T08:07:35.403Z,11.90
2019-02-25T08:08:35.318Z,11.90
2019-02-25T08:09:35.229Z,12.00
2019-02-25T08:10:35.153Z,11.80
2019-02-25T08:11:35.066Z,12.20
2019-02-25T08:12:34.980Z,12.20
2019-02-25T08:13:34.901Z,11.10
2019-02-25T08:14:34.813Z,11.80
2019-02-25T08:15:34.729Z,12.50
2019-02-25T08:16:34.641Z,12.00
2019-02-25T08:17:34.568Z,11.40
2019-02-25T08:18:34.479Z,11.40
2019-02-25T08:19:34.391Z,11.70
2019-02-25T08:20:34.314Z,12.20
2019-02-25T08:21:34.228Z,12.10
2019-02-25T08:22:34.140Z,11.40
2019-02-25T08:23:34.053Z,11.80
2019-02-25T08:24:33.981Z,12.10
2019-02-25T08:25:33.903Z,11.70
2019-02-25T08:26:33.805Z,12.20
2019-02-25T08:27:33.716Z,11.20
2019-02-25T08:28:33.645Z,11.50
2019-02-25T08:29:33.555Z,12.30
2019-02-25T08:30:33.467Z,12.40
2019-02-25T08:31:33.406Z,12.60
2019-02-25T08:32:33.305Z,11.80
2019-02-25T08:33:33.216Z,12.00
2019-02-25T08:34:33.146Z,12.30
2019-02-25T08:35:33.055Z,12.40
2019-02-25T08:36:32.968Z,11.80
2019-02-25T08:37:32.893Z,12.10
2019-02-25T08:38:32.808Z,12.00
2019-02-25T08:39:32.970Z,12.00
2019-02-25T08:40:32.644Z,12.60
2019-02-25T08:41:32.557Z,12.20
2019-02-25T08:42:32.472Z,12.00
2019-02-25T08:43:32.394Z,12.30
2019-02-25T08:44:32.306Z,12.40
2019-02-25T08:45:32.219Z,12.30
2019-02-25T08:46:32.142Z,11.90
2019-02-25T08:47:32.055Z,12.50
2019-02-25T08:48:31.983Z,12.70
2019-02-25T08:49:32.208Z,12.80
2019-02-25T08:50:31.812Z,13.20
2019-02-25T08:51:31.733Z,12.60
2019-02-25T08:52:31.643Z,12.60
2019-02-25T08:53:31.570Z,12.60
2019-02-25T08:54:31.483Z,12.50
2019-02-25T08:55:31.406Z,12.60
2019-02-25T08:56:31.320Z,12.50
2019-02-25T08:57:31.232Z,12.60
2019-02-25T08:58:31.156Z,12.20
2019-02-25T08:59:31.072Z,12.80
2019-02-25T09:00:30.997Z,12.60
2019-02-25T09:01:30.910Z,13.10
2019-02-25T09:02:30.834Z,13.00
2019-02-25T09:03:30.747Z,12.90
2019-02-25T09:04:30.669Z,13.10
2019-02-25T09:05:30.583Z,12.40
2019-02-25T09:06:30.496Z,12.60
2019-02-25T09:07:30.420Z,12.80
2019-02-25T09:08:30.347Z,12.60
2019-02-25T09:09:30.261Z,12.70
2019-02-25T09:10:30.173Z,13.00
2019-02-25T09:11:30.100Z,12.90
2019-02-25T09:12:30.023Z,13.20
2019-02-25T09:13:29.937Z,13.30
2019-02-25T09:14:29.863Z,13.30
2019-02-25T09:15:29.773Z,13.20
2019-02-25T09:16:29.696Z,12.30
2019-02-25T09:17:29.609Z,13.00
2019-02-25T09:18:29.534Z,12.90
2019-02-25T09:19:29.446Z,13.60
2019-02-25T09:20:29.373Z,13.20
2019-02-25T09:21:31.805Z,12.90
2019-02-25T09:22:29.212Z,13.80
2019-02-25T09:23:29.125Z,14.10
2019-02-25T09:24:29.048Z,13.70
2019-02-25T09:25:28.971Z,14.20
2019-02-25T09:26:28.885Z,13.30
2019-02-25T09:27:28.810Z,13.80
2019-02-25T09:28:28.722Z,13.30
2019-02-25T09:29:28.660Z,14.10
2019-02-25T09:30:28.561Z,14.10
2019-02-25T09:31:28.486Z,15.30
2019-02-25T09:32:28.415Z,15.90
2019-02-25T09:33:28.324Z,15.90
2019-02-25T09:34:28.250Z,15.70
2019-02-25T09:35:28.163Z,16.20
2019-02-25T09:36:28.087Z,15.20
2019-02-25T09:37:28.011Z,15.40
2019-02-25T09:38:27.929Z,16.20
2019-02-25T09:39:28.098Z,16.70
2019-02-25T09:40:27.764Z,17.90
2019-02-25T09:41:29.851Z,17.20
2019-02-25T09:42:27.613Z,17.60
2019-02-25T09:43:27.526Z,17.00
2019-02-25T09:44:27.441Z,16.60
2019-02-25T09:45:27.362Z,16.70
2019-02-25T09:46:27.274Z,17.60
2019-02-25T09:47:27.212Z,16.50
2019-02-25T09:48:27.115Z,17.60
2019-02-25T09:49:27.046Z,17.90
2019-02-25T09:50:26.953Z,17.70
2019-02-25T09:51:26.877Z,18.40
2019-02-25T09:52:26.812Z,18.40
2019-02-25T09:53:26.714Z,17.80
2019-02-25T09:54:26.645Z,17.80
2019-02-25T09:55:26.552Z,18.40
2019-02-25T09:56:26.477Z,18.50
2019-02-25T09:57:26.390Z,19.00
2019-02-25T09:58:26.315Z,19.20
2019-02-25T09:59:26.229Z,20.20
2019-02-25T10:00:26.154Z,20.70
2019-02-25T10:01:26.067Z,20.90
2019-02-25T10:02:25.992Z,20.80
2019-02-25T10:03:25.916Z,21.40
2019-02-25T10:04:25.827Z,21.60
2019-02-25T10:05:25.752Z,21.20
2019-02-25T10:06:25.664Z,20.80
2019-02-25T10:07:25.589Z,20.60
2019-02-25T10:08:25.515Z,20.10
2019-02-25T10:09:29.848Z,19.60
2019-02-25T10:10:25.343Z,19.90
2019-02-25T10:11:25.267Z,19.40
2019-02-25T10:12:25.177Z,19.10
2019-02-25T10:13:25.105Z,19.60
2019-02-25T10:14:25.021Z,19.30
2019-02-25T10:15:24.941Z,19.70
2019-02-25T10:16:24.852Z,20.50
2019-02-25T10:17:24.780Z,20.60
2019-02-25T10:18:24.691Z,20.20
2019-02-25T10:19:24.868Z,21.00
2019-02-25T10:20:24.542Z,20.20
2019-02-25T10:21:24.455Z,20.20
2019-02-25T10:22:24.368Z,20.90
2019-02-25T10:23:24.294Z,21.90
2019-02-25T10:24:24.203Z,21.70
2019-02-25T10:25:24.141Z,21.30
2019-02-25T10:26:24.042Z,21.90
2019-02-25T10:27:23.966Z,22.20
2019-02-25T10:28:23.881Z,21.70
2019-02-25T10:29:23.808Z,21.40
2019-02-25T10:30:23.721Z,20.40
2019-02-25T10:31:23.644Z,20.50
2019-02-25T10:32:25.445Z,21.20
2019-02-25T10:33:23.481Z,21.50
2019-02-25T10:34:24.065Z,21.10
2019-02-25T10:35:24.819Z,21.20
2019-02-25T10:36:23.286Z,20.70
2019-02-25T10:37:23.154Z,21.50
2019-02-25T10:38:23.083Z,21.30
2019-02-25T10:39:23.245Z,21.70
2019-02-25T10:40:24.769Z,21.50
2019-02-25T10:41:23.319Z,20.60
2019-02-25T10:42:22.757Z,20.40
2019-02-25T10:43:22.671Z,20.20
2019-02-25T10:44:22.594Z,20.40
2019-02-25T10:45:22.506Z,20.30
2019-02-25T10:46:22.431Z,20.60
2019-02-25T10:47:22.356Z,20.30
2019-02-25T10:48:23.531Z,20.70
2019-02-25T10:49:22.490Z,19.70
2019-02-25T10:50:22.106Z,19.60
2019-02-25T10:51:22.031Z,20.20
2019-02-25T10:52:21.947Z,20.40
2019-02-25T10:53:22.069Z,20.00
2019-02-25T10:54:23.144Z,20.50
2019-02-25T10:55:21.708Z,20.40
2019-02-25T10:56:22.061Z,20.00
2019-02-25T10:57:23.823Z,19.30
2019-02-25T10:58:21.470Z,20.40
2019-02-25T10:59:21.385Z,19.70
2019-02-25T11:00:21.322Z,20.20
2019-02-25T11:01:22.330Z,19.90
2019-02-25T11:02:21.151Z,20.40
2019-02-25T11:03:21.722Z,20.20
2019-02-25T11:04:21.782Z,20.90
2019-02-25T11:05:21.175Z,21.60
2019-02-25T11:06:20.823Z,20.90
2019-02-25T11:07:20.748Z,19.80
2019-02-25T11:08:20.659Z,19.80
2019-02-25T11:09:20.583Z,20.50
2019-02-25T11:10:22.241Z,19.50
2019-02-25T11:11:21.060Z,19.90
2019-02-25T11:12:21.561Z,20.20
2019-02-25T11:13:20.276Z,20.50
2019-02-25T11:14:20.187Z,20.20
2019-02-25T11:15:20.102Z,19.80
2019-02-25T11:16:20.470Z,20.50
2019-02-25T11:17:20.422Z,20.40
2019-02-25T11:18:21.834Z,20.60
2019-02-25T11:19:20.034Z,20.40
2019-02-25T11:20:19.700Z,20.40
2019-02-25T11:21:19.622Z,20.00
2019-02-25T11:22:19.547Z,19.70
2019-02-25T11:23:21.410Z,19.60
2019-02-25T11:24:20.796Z,19.80
2019-02-25T11:25:19.792Z,20.10
2019-02-25T11:26:19.226Z,19.90
2019-02-25T11:27:19.150Z,19.60
2019-02-25T11:28:25.417Z,19.90
2019-02-25T11:29:19.011Z,19.40
2019-02-25T11:30:20.742Z,20.20
2019-02-25T11:31:22.812Z,19.70
2019-02-25T11:32:19.859Z,19.60
2019-02-25T11:33:18.676Z,19.40
2019-02-25T11:34:18.601Z,19.30
2019-02-25T11:35:18.527Z,19.90
2019-02-25T11:36:20.145Z,19.80
2019-02-25T11:37:19.697Z,20.70
2019-02-25T11:38:18.291Z,19.50
2019-02-25T11:39:18.214Z,19.80
2019-02-25T11:40:18.127Z,20.00
2019-02-25T11:41:18.050Z,19.20
2019-02-25T11:42:20.348Z,20.30
2019-02-25T11:43:18.816Z,20.20
2019-02-25T11:44:19.025Z,20.90
2019-02-25T11:45:17.745Z,20.00
2019-02-25T11:46:17.665Z,20.30
2019-02-25T11:47:17.593Z,20.30
2019-02-25T11:48:17.512Z,20.90
2019-02-25T11:49:17.430Z,20.00
2019-02-25T11:50:17.354Z,19.70
2019-02-25T11:51:17.279Z,20.40
2019-02-25T11:52:17.204Z,19.50
2019-02-25T11:53:17.131Z,19.70
2019-02-25T11:54:17.059Z,19.70
2019-02-25T11:55:16.970Z,19.70
2019-02-25T11:56:16.889Z,19.70
2019-02-25T11:57:16.814Z,20.40
2019-02-25T11:58:16.753Z,21.30
2019-02-25T11:59:16.665Z,19.60
2019-02-25T12:00:16.594Z,19.40
2019-02-25T12:01:16.529Z,20.70
2019-02-25T12:02:24.954Z,19.30
2019-02-25T12:03:16.366Z,19.10
2019-02-25T12:04:16.290Z,20.40
2019-02-25T12:05:16.215Z,18.90
2019-02-25T12:06:16.140Z,18.80
2019-02-25T12:07:16.077Z,19.30
2019-02-25T12:08:15.978Z,19.20
2019-02-25T12:09:15.903Z,19.40
2019-02-25T12:10:15.840Z,20.00
2019-02-25T12:11:15.753Z,19.50
2019-02-25T12:12:15.681Z,19.40
2019-02-25T12:13:15.606Z,19.80
2019-02-25T12:14:15.531Z,19.50
2019-02-25T12:15:15.456Z,19.70
2019-02-25T12:16:15.379Z,19.90
2019-02-25T12:17:15.310Z,20.00
2019-02-25T12:18:15.229Z,20.30
2019-02-25T12:19:17.931Z,20.80
2019-02-25T12:20:15.081Z,20.10
2019-02-25T12:21:15.008Z,20.00
2019-02-25T12:22:14.931Z,20.40
2019-02-25T12:23:14.858Z,20.10
2019-02-25T12:24:14.782Z,20.20
2019-02-25T12:25:14.708Z,19.80
2019-02-25T12:26:14.632Z,19.90
2019-02-25T12:27:14.560Z,20.20
2019-02-25T12:28:14.482Z,19.50
2019-02-25T12:29:14.407Z,19.10
2019-02-25T12:30:14.333Z,20.10
2019-02-25T12:31:14.258Z,19.90
2019-02-25T12:32:14.182Z,19.40
2019-02-25T12:33:14.107Z,19.30
2019-02-25T12:34:14.033Z,20.30
2019-02-25T12:35:13.958Z,19.50
2019-02-25T12:36:13.884Z,19.60
2019-02-25T12:37:13.808Z,20.30
2019-02-25T12:38:13.733Z,19.80
2019-02-25T12:39:13.658Z,19.30
2019-02-25T12:40:13.582Z,19.80
2019-02-25T12:41:13.507Z,19.60
2019-02-25T12:42:13.434Z,18.50
2019-02-25T12:43:13.360Z,19.40
2019-02-25T12:44:13.286Z,19.40
2019-02-25T12:45:13.209Z,20.20
2019-02-25T12:46:13.139Z,19.90
2019-02-25T12:47:13.059Z,19.30
2019-02-25T12:48:12.984Z,19.60
2019-02-25T12:49:55.035Z,19.40
2019-02-25T12:50:54.960Z,19.20
2019-02-25T12:51:54.884Z,18.70